sensor_id;sensor_type;location;lat;lon;timestamp;temperature;humidity
18934;DHT22;9599;53.706;10.384;2024-03-08T00:00:33;1.40;99.90
18934;DHT22;9599;53.706;10.384;2024-03-08T00:03:01;1.40;99.90
18934;DHT22;9599;53.706;10.384;2024-03-08T00:05:30;1.30;99.90
18934;DHT22;9599;53.706;10.384;2024-03-08T00:07:58;1.30;99.90
18934;DHT22;9599;53.706;10.384;2024-03-08T00:10:27;1.30;99.90
18934;DHT22;9599;53.706;10.384;2024-03-08T00:12:55;1.30;99.90
18934;DHT22;9599;53.706;10.384;2024-03-08T00:15:26;1.30;99.90
18934;DHT22;9599;53.706;10.384;2024-03-08T00:17:56;1.20;99.90
18934;DHT22;9599;53.706;10.384;2024-03-08T00:20:24;1.20;99.90
18934;DHT22;9599;53.706;10.384;2024-03-08T00:22:52;1.20;99.90
18934;DHT22;9599;53.706;10.384;2024-03-08T00:25:20;1.20;99.90
18934;DHT22;9599;53.706;10.384;2024-03-08T00:27:50;1.20;99.90
18934;DHT22;9599;53.706;10.384;2024-03-08T00:30:18;1.20;99.90
18934;DHT22;9599;53.706;10.384;2024-03-08T00:32:47;1.20;99.90
18934;DHT22;9599;53.706;10.384;2024-03-08T00:35:15;1.20;99.90
18934;DHT22;9599;53.706;10.384;2024-03-08T00:37:44;1.10;99.90
18934;DHT22;9599;53.706;10.384;2024-03-08T00:40:14;1.10;99.90
18934;DHT22;9599;53.706;10.384;2024-03-08T00:42:42;1.10;99.90
18934;DHT22;9599;53.706;10.384;2024-03-08T00:45:11;1.10;99.90
18934;DHT22;9599;53.706;10.384;2024-03-08T00:47:39;1.10;99.90
18934;DHT22;9599;53.706;10.384;2024-03-08T00:50:11;1.10;99.90
18934;DHT22;9599;53.706;10.384;2024-03-08T00:52:39;1.10;99.90
18934;DHT22;9599;53.706;10.384;2024-03-08T00:55:08;1.10;99.90
18934;DHT22;9599;53.706;10.384;2024-03-08T00:57:37;1.00;99.90
18934;DHT22;9599;53.706;10.384;2024-03-08T01:00:07;1.00;99.90
18934;DHT22;9599;53.706;10.384;2024-03-08T01:02:39;1.00;99.90
18934;DHT22;9599;53.706;10.384;2024-03-08T01:05:08;1.00;99.90
18934;DHT22;9599;53.706;10.384;2024-03-08T01:07:37;1.10;99.90
18934;DHT22;9599;53.706;10.384;2024-03-08T01:10:06;1.10;99.90
18934;DHT22;9599;53.706;10.384;2024-03-08T01:12:37;1.00;99.90
18934;DHT22;9599;53.706;10.384;2024-03-08T01:15:06;1.00;99.90
18934;DHT22;9599;53.706;10.384;2024-03-08T01:17:34;1.00;99.90
18934;DHT22;9599;53.706;10.384;2024-03-08T01:20:04;1.00;99.90
18934;DHT22;9599;53.706;10.384;2024-03-08T01:22:32;1.00;99.90
18934;DHT22;9599;53.706;10.384;2024-03-08T01:25:01;1.00;99.90
18934;DHT22;9599;53.706;10.384;2024-03-08T01:27:31;1.00;99.90
18934;DHT22;9599;53.706;10.384;2024-03-08T01:29:59;1.00;99.90
18934;DHT22;9599;53.706;10.384;2024-03-08T01:32:27;1.00;99.90
18934;DHT22;9599;53.706;10.384;2024-03-08T01:34:56;0.90;99.90
18934;DHT22;9599;53.706;10.384;2024-03-08T01:37:24;0.90;99.90
18934;DHT22;9599;53.706;10.384;2024-03-08T01:39:52;0.90;99.90
18934;DHT22;9599;53.706;10.384;2024-03-08T01:42:21;0.90;99.90
18934;DHT22;9599;53.706;10.384;2024-03-08T01:44:49;0.90;99.90
18934;DHT22;9599;53.706;10.384;2024-03-08T01:47:18;0.80;99.90
18934;DHT22;9599;53.706;10.384;2024-03-08T01:49:47;0.90;99.90
18934;DHT22;9599;53.706;10.384;2024-03-08T01:52:15;0.80;99.90
18934;DHT22;9599;53.706;10.384;2024-03-08T01:54:46;0.70;99.90
18934;DHT22;9599;53.706;10.384;2024-03-08T01:57:15;0.70;99.90
18934;DHT22;9599;53.706;10.384;2024-03-08T02:00:03;0.60;99.90
18934;DHT22;9599;53.706;10.384;2024-03-08T02:02:32;0.60;99.90
18934;DHT22;9599;53.706;10.384;2024-03-08T02:05:01;0.60;99.90
18934;DHT22;9599;53.706;10.384;2024-03-08T02:07:29;0.70;99.90
18934;DHT22;9599;53.706;10.384;2024-03-08T02:09:58;0.70;99.90
18934;DHT22;9599;53.706;10.384;2024-03-08T02:12:27;0.60;99.90
18934;DHT22;9599;53.706;10.384;2024-03-08T02:14:55;0.60;99.90
18934;DHT22;9599;53.706;10.384;2024-03-08T02:17:25;0.60;99.90
18934;DHT22;9599;53.706;10.384;2024-03-08T02:19:53;0.60;99.90
18934;DHT22;9599;53.706;10.384;2024-03-08T02:22:26;0.60;99.90
18934;DHT22;9599;53.706;10.384;2024-03-08T02:24:54;0.50;99.90
18934;DHT22;9599;53.706;10.384;2024-03-08T02:27:23;0.50;99.90
18934;DHT22;9599;53.706;10.384;2024-03-08T02:29:55;0.50;99.90
18934;DHT22;9599;53.706;10.384;2024-03-08T02:32:23;0.50;99.90
18934;DHT22;9599;53.706;10.384;2024-03-08T02:34:56;0.50;99.90
18934;DHT22;9599;53.706;10.384;2024-03-08T02:37:28;0.40;99.90
18934;DHT22;9599;53.706;10.384;2024-03-08T02:39:56;0.50;99.90
18934;DHT22;9599;53.706;10.384;2024-03-08T02:42:25;0.40;99.90
18934;DHT22;9599;53.706;10.384;2024-03-08T02:44:53;0.30;99.90
18934;DHT22;9599;53.706;10.384;2024-03-08T02:47:21;0.30;99.90
18934;DHT22;9599;53.706;10.384;2024-03-08T02:49:52;0.20;99.90
18934;DHT22;9599;53.706;10.384;2024-03-08T02:52:20;0.20;99.90
18934;DHT22;9599;53.706;10.384;2024-03-08T02:54:50;0.20;99.90
18934;DHT22;9599;53.706;10.384;2024-03-08T02:57:18;0.20;99.90
18934;DHT22;9599;53.706;10.384;2024-03-08T02:59:47;0.10;99.90
18934;DHT22;9599;53.706;10.384;2024-03-08T03:02:15;0.10;99.90
18934;DHT22;9599;53.706;10.384;2024-03-08T03:04:44;0.10;99.90
18934;DHT22;9599;53.706;10.384;2024-03-08T03:07:12;0.10;99.90
18934;DHT22;9599;53.706;10.384;2024-03-08T03:09:40;0.00;99.90
18934;DHT22;9599;53.706;10.384;2024-03-08T03:12:10;0.00;99.90
18934;DHT22;9599;53.706;10.384;2024-03-08T03:14:38;0.00;99.90
18934;DHT22;9599;53.706;10.384;2024-03-08T03:17:06;0.00;99.90
18934;DHT22;9599;53.706;10.384;2024-03-08T03:19:36;0.00;99.90
18934;DHT22;9599;53.706;10.384;2024-03-08T03:22:06;0.00;99.90
18934;DHT22;9599;53.706;10.384;2024-03-08T03:24:36;0.00;99.90
18934;DHT22;9599;53.706;10.384;2024-03-08T03:27:05;0.00;99.90
18934;DHT22;9599;53.706;10.384;2024-03-08T03:29:39;-0.10;99.90
18934;DHT22;9599;53.706;10.384;2024-03-08T03:32:10;-0.20;99.90
18934;DHT22;9599;53.706;10.384;2024-03-08T03:34:38;-0.20;99.90
18934;DHT22;9599;53.706;10.384;2024-03-08T03:37:07;-0.20;99.90
18934;DHT22;9599;53.706;10.384;2024-03-08T03:39:35;-0.20;99.90
18934;DHT22;9599;53.706;10.384;2024-03-08T03:42:16;-0.20;99.90
18934;DHT22;9599;53.706;10.384;2024-03-08T03:44:46;-0.20;99.90
18934;DHT22;9599;53.706;10.384;2024-03-08T03:47:15;-0.20;99.90
18934;DHT22;9599;53.706;10.384;2024-03-08T03:49:43;-0.20;99.90
18934;DHT22;9599;53.706;10.384;2024-03-08T03:52:11;-0.20;99.90
18934;DHT22;9599;53.706;10.384;2024-03-08T03:54:39;-0.20;99.90
18934;DHT22;9599;53.706;10.384;2024-03-08T03:57:08;-0.20;99.90
18934;DHT22;9599;53.706;10.384;2024-03-08T03:59:36;-0.20;99.90
18934;DHT22;9599;53.706;10.384;2024-03-08T04:02:06;-0.30;99.90
18934;DHT22;9599;53.706;10.384;2024-03-08T04:04:34;-0.30;99.90
18934;DHT22;9599;53.706;10.384;2024-03-08T04:07:02;-0.20;99.90
18934;DHT22;9599;53.706;10.384;2024-03-08T04:09:30;-0.20;99.90
18934;DHT22;9599;53.706;10.384;2024-03-08T04:11:58;-0.20;99.90
18934;DHT22;9599;53.706;10.384;2024-03-08T04:14:28;-0.20;99.90
18934;DHT22;9599;53.706;10.384;2024-03-08T04:16:56;-0.20;99.90
18934;DHT22;9599;53.706;10.384;2024-03-08T04:19:25;-0.10;99.90
18934;DHT22;9599;53.706;10.384;2024-03-08T04:21:54;-0.10;99.90
18934;DHT22;9599;53.706;10.384;2024-03-08T04:24:23;-0.10;99.90
18934;DHT22;9599;53.706;10.384;2024-03-08T04:26:51;-0.20;99.90
18934;DHT22;9599;53.706;10.384;2024-03-08T04:29:19;-0.20;99.90
18934;DHT22;9599;53.706;10.384;2024-03-08T04:31:48;-0.10;99.90
18934;DHT22;9599;53.706;10.384;2024-03-08T04:34:21;-0.10;99.90
18934;DHT22;9599;53.706;10.384;2024-03-08T04:36:50;-0.10;99.90
18934;DHT22;9599;53.706;10.384;2024-03-08T04:39:19;-0.10;99.90
18934;DHT22;9599;53.706;10.384;2024-03-08T04:41:49;-0.20;99.90
18934;DHT22;9599;53.706;10.384;2024-03-08T04:44:18;-0.20;99.90
18934;DHT22;9599;53.706;10.384;2024-03-08T04:46:46;-0.20;99.90
18934;DHT22;9599;53.706;10.384;2024-03-08T04:49:14;-0.30;99.90
18934;DHT22;9599;53.706;10.384;2024-03-08T04:51:42;-0.40;99.90
18934;DHT22;9599;53.706;10.384;2024-03-08T04:54:13;-0.50;99.90
18934;DHT22;9599;53.706;10.384;2024-03-08T04:56:41;-0.50;99.90
18934;DHT22;9599;53.706;10.384;2024-03-08T04:59:09;-0.60;99.90
18934;DHT22;9599;53.706;10.384;2024-03-08T05:01:37;-0.60;99.90
18934;DHT22;9599;53.706;10.384;2024-03-08T05:04:05;-0.60;99.90
18934;DHT22;9599;53.706;10.384;2024-03-08T05:06:37;-0.70;99.90
18934;DHT22;9599;53.706;10.384;2024-03-08T05:09:05;-0.70;99.90
18934;DHT22;9599;53.706;10.384;2024-03-08T05:11:42;-0.70;99.90
18934;DHT22;9599;53.706;10.384;2024-03-08T05:14:11;-0.70;99.90
18934;DHT22;9599;53.706;10.384;2024-03-08T05:16:43;-0.60;99.90
18934;DHT22;9599;53.706;10.384;2024-03-08T05:19:16;-0.70;99.90
18934;DHT22;9599;53.706;10.384;2024-03-08T05:21:44;-0.60;99.90
18934;DHT22;9599;53.706;10.384;2024-03-08T05:24:13;-0.60;99.90
18934;DHT22;9599;53.706;10.384;2024-03-08T05:26:43;-0.50;99.90
18934;DHT22;9599;53.706;10.384;2024-03-08T05:29:11;-0.50;99.90
18934;DHT22;9599;53.706;10.384;2024-03-08T05:31:46;-0.40;99.90
18934;DHT22;9599;53.706;10.384;2024-03-08T05:34:14;-0.30;99.90
18934;DHT22;9599;53.706;10.384;2024-03-08T05:36:43;-0.30;99.90
18934;DHT22;9599;53.706;10.384;2024-03-08T05:39:12;-0.40;99.90
18934;DHT22;9599;53.706;10.384;2024-03-08T05:58:30;-0.40;99.90
18934;DHT22;9599;53.706;10.384;2024-03-08T06:00:58;-0.40;99.90
18934;DHT22;9599;53.706;10.384;2024-03-08T06:03:26;-0.40;99.90
18934;DHT22;9599;53.706;10.384;2024-03-08T06:05:54;-0.40;99.90
18934;DHT22;9599;53.706;10.384;2024-03-08T06:08:23;-0.30;99.90
18934;DHT22;9599;53.706;10.384;2024-03-08T06:10:56;-0.30;99.90
18934;DHT22;9599;53.706;10.384;2024-03-08T06:13:25;-0.30;99.90
18934;DHT22;9599;53.706;10.384;2024-03-08T06:15:57;-0.30;99.90
18934;DHT22;9599;53.706;10.384;2024-03-08T06:18:26;-0.40;99.90
18934;DHT22;9599;53.706;10.384;2024-03-08T06:20:58;-0.30;99.90
18934;DHT22;9599;53.706;10.384;2024-03-08T06:23:27;-0.30;99.90
18934;DHT22;9599;53.706;10.384;2024-03-08T06:25:55;-0.30;99.90
18934;DHT22;9599;53.706;10.384;2024-03-08T06:28:24;-0.20;99.90
18934;DHT22;9599;53.706;10.384;2024-03-08T06:30:52;-0.20;99.90
18934;DHT22;9599;53.706;10.384;2024-03-08T06:33:22;-0.20;99.90
18934;DHT22;9599;53.706;10.384;2024-03-08T06:35:50;-0.20;99.90
18934;DHT22;9599;53.706;10.384;2024-03-08T06:38:18;-0.10;99.90
18934;DHT22;9599;53.706;10.384;2024-03-08T06:40:47;-0.10;99.90
18934;DHT22;9599;53.706;10.384;2024-03-08T06:43:15;0.00;99.90
18934;DHT22;9599;53.706;10.384;2024-03-08T06:45:44;0.00;99.90
18934;DHT22;9599;53.706;10.384;2024-03-08T06:48:15;-0.10;99.90
18934;DHT22;9599;53.706;10.384;2024-03-08T06:50:46;0.00;99.90
18934;DHT22;9599;53.706;10.384;2024-03-08T06:53:14;0.00;99.90
18934;DHT22;9599;53.706;10.384;2024-03-08T06:55:49;0.00;99.90
18934;DHT22;9599;53.706;10.384;2024-03-08T06:58:17;0.00;99.90
18934;DHT22;9599;53.706;10.384;2024-03-08T07:00:46;0.00;99.90
18934;DHT22;9599;53.706;10.384;2024-03-08T07:03:14;0.10;99.90
18934;DHT22;9599;53.706;10.384;2024-03-08T07:05:46;0.10;99.90
18934;DHT22;9599;53.706;10.384;2024-03-08T07:08:15;0.00;99.90
18934;DHT22;9599;53.706;10.384;2024-03-08T07:10:43;-0.10;99.90
18934;DHT22;9599;53.706;10.384;2024-03-08T07:13:12;0.00;99.90
18934;DHT22;9599;53.706;10.384;2024-03-08T07:15:39;0.20;99.90
18934;DHT22;9599;53.706;10.384;2024-03-08T07:18:09;0.30;99.90
18934;DHT22;9599;53.706;10.384;2024-03-08T07:20:41;0.40;99.90
18934;DHT22;9599;53.706;10.384;2024-03-08T07:23:11;0.50;99.90
18934;DHT22;9599;53.706;10.384;2024-03-08T07:26:00;0.50;99.90
18934;DHT22;9599;53.706;10.384;2024-03-08T07:28:28;0.50;99.90
18934;DHT22;9599;53.706;10.384;2024-03-08T07:30:57;0.40;99.90
18934;DHT22;9599;53.706;10.384;2024-03-08T07:33:39;0.40;99.90
18934;DHT22;9599;53.706;10.384;2024-03-08T07:36:08;0.40;99.90
18934;DHT22;9599;53.706;10.384;2024-03-08T07:38:37;0.50;99.90
18934;DHT22;9599;53.706;10.384;2024-03-08T07:41:06;0.70;99.90
18934;DHT22;9599;53.706;10.384;2024-03-08T07:43:34;0.70;99.90
18934;DHT22;9599;53.706;10.384;2024-03-08T07:46:02;0.80;99.90
18934;DHT22;9599;53.706;10.384;2024-03-08T07:48:30;0.90;99.90
18934;DHT22;9599;53.706;10.384;2024-03-08T07:50:58;0.90;99.90
18934;DHT22;9599;53.706;10.384;2024-03-08T07:53:26;1.00;99.90
18934;DHT22;9599;53.706;10.384;2024-03-08T07:55:55;1.20;99.90
18934;DHT22;9599;53.706;10.384;2024-03-08T07:58:24;1.10;99.90
18934;DHT22;9599;53.706;10.384;2024-03-08T08:00:52;1.10;99.90
18934;DHT22;9599;53.706;10.384;2024-03-08T08:03:20;1.30;99.90
18934;DHT22;9599;53.706;10.384;2024-03-08T08:05:48;1.40;99.90
18934;DHT22;9599;53.706;10.384;2024-03-08T08:08:16;1.30;99.90
18934;DHT22;9599;53.706;10.384;2024-03-08T08:10:44;1.40;99.90
18934;DHT22;9599;53.706;10.384;2024-03-08T08:13:13;1.60;99.90
18934;DHT22;9599;53.706;10.384;2024-03-08T08:15:46;1.90;99.90
18934;DHT22;9599;53.706;10.384;2024-03-08T08:18:14;2.20;99.90
18934;DHT22;9599;53.706;10.384;2024-03-08T08:20:42;2.50;99.90
18934;DHT22;9599;53.706;10.384;2024-03-08T08:23:10;2.60;99.90
18934;DHT22;9599;53.706;10.384;2024-03-08T08:25:39;2.70;99.90
18934;DHT22;9599;53.706;10.384;2024-03-08T08:28:07;2.70;99.90
18934;DHT22;9599;53.706;10.384;2024-03-08T08:30:36;2.90;99.90
18934;DHT22;9599;53.706;10.384;2024-03-08T08:33:05;3.10;99.90
18934;DHT22;9599;53.706;10.384;2024-03-08T08:35:33;3.10;99.90
18934;DHT22;9599;53.706;10.384;2024-03-08T08:38:01;3.20;99.90
18934;DHT22;9599;53.706;10.384;2024-03-08T08:40:31;3.40;99.90
18934;DHT22;9599;53.706;10.384;2024-03-08T08:42:59;3.10;99.90
18934;DHT22;9599;53.706;10.384;2024-03-08T08:45:27;3.10;99.90
18934;DHT22;9599;53.706;10.384;2024-03-08T08:47:58;3.00;99.90
18934;DHT22;9599;53.706;10.384;2024-03-08T08:50:30;3.00;99.90
18934;DHT22;9599;53.706;10.384;2024-03-08T08:52:59;3.10;99.90
18934;DHT22;9599;53.706;10.384;2024-03-08T08:55:27;3.40;99.90
18934;DHT22;9599;53.706;10.384;2024-03-08T08:57:55;3.50;99.90
18934;DHT22;9599;53.706;10.384;2024-03-08T09:00:23;3.60;99.90
18934;DHT22;9599;53.706;10.384;2024-03-08T09:02:54;3.50;99.90
18934;DHT22;9599;53.706;10.384;2024-03-08T09:05:26;3.40;99.90
18934;DHT22;9599;53.706;10.384;2024-03-08T09:07:54;3.40;99.90
18934;DHT22;9599;53.706;10.384;2024-03-08T09:10:22;3.20;99.90
18934;DHT22;9599;53.706;10.384;2024-03-08T09:12:57;3.20;99.90
18934;DHT22;9599;53.706;10.384;2024-03-08T09:15:27;3.40;99.90
18934;DHT22;9599;53.706;10.384;2024-03-08T09:17:56;3.30;99.90
18934;DHT22;9599;53.706;10.384;2024-03-08T09:20:25;3.20;99.90
18934;DHT22;9599;53.706;10.384;2024-03-08T09:22:53;3.40;99.90
18934;DHT22;9599;53.706;10.384;2024-03-08T09:25:22;3.70;99.90
18934;DHT22;9599;53.706;10.384;2024-03-08T09:27:50;4.10;99.90
18934;DHT22;9599;53.706;10.384;2024-03-08T09:30:18;4.10;99.90
18934;DHT22;9599;53.706;10.384;2024-03-08T09:32:48;4.20;99.90
18934;DHT22;9599;53.706;10.384;2024-03-08T09:35:18;4.50;99.90
18934;DHT22;9599;53.706;10.384;2024-03-08T09:37:48;4.60;99.90
18934;DHT22;9599;53.706;10.384;2024-03-08T09:40:18;4.80;99.90
18934;DHT22;9599;53.706;10.384;2024-03-08T09:42:48;5.10;99.90
18934;DHT22;9599;53.706;10.384;2024-03-08T09:45:17;5.20;99.90
18934;DHT22;9599;53.706;10.384;2024-03-08T09:47:45;5.30;99.90
18934;DHT22;9599;53.706;10.384;2024-03-08T09:50:13;5.40;99.90
18934;DHT22;9599;53.706;10.384;2024-03-08T09:52:42;5.60;99.90
18934;DHT22;9599;53.706;10.384;2024-03-08T09:55:12;5.70;99.90
18934;DHT22;9599;53.706;10.384;2024-03-08T09:57:43;5.50;99.90
18934;DHT22;9599;53.706;10.384;2024-03-08T10:00:32;5.60;99.90
18934;DHT22;9599;53.706;10.384;2024-03-08T10:03:01;5.70;99.90
18934;DHT22;9599;53.706;10.384;2024-03-08T10:05:30;5.90;99.90
18934;DHT22;9599;53.706;10.384;2024-03-08T10:07:59;6.40;99.90
18934;DHT22;9599;53.706;10.384;2024-03-08T10:10:28;6.70;99.90
18934;DHT22;9599;53.706;10.384;2024-03-08T10:12:56;6.60;99.90
18934;DHT22;9599;53.706;10.384;2024-03-08T10:15:27;6.80;99.90
18934;DHT22;9599;53.706;10.384;2024-03-08T10:17:56;7.10;99.90
18934;DHT22;9599;53.706;10.384;2024-03-08T10:20:24;7.00;99.90
18934;DHT22;9599;53.706;10.384;2024-03-08T10:22:53;7.00;99.90
18934;DHT22;9599;53.706;10.384;2024-03-08T10:25:37;6.90;99.90
18934;DHT22;9599;53.706;10.384;2024-03-08T10:28:06;6.80;99.90
18934;DHT22;9599;53.706;10.384;2024-03-08T10:30:34;6.60;99.90
18934;DHT22;9599;53.706;10.384;2024-03-08T10:33:02;6.70;99.90
18934;DHT22;9599;53.706;10.384;2024-03-08T10:35:32;6.80;99.90
18934;DHT22;9599;53.706;10.384;2024-03-08T10:38:01;7.00;99.90
18934;DHT22;9599;53.706;10.384;2024-03-08T10:40:36;7.10;99.90
18934;DHT22;9599;53.706;10.384;2024-03-08T10:43:22;7.30;99.90
18934;DHT22;9599;53.706;10.384;2024-03-08T10:46:03;7.40;99.90
18934;DHT22;9599;53.706;10.384;2024-03-08T10:48:41;7.60;99.90
18934;DHT22;9599;53.706;10.384;2024-03-08T10:51:11;7.50;99.90
18934;DHT22;9599;53.706;10.384;2024-03-08T10:53:40;7.50;99.90
18934;DHT22;9599;53.706;10.384;2024-03-08T10:56:10;7.60;99.90
18934;DHT22;9599;53.706;10.384;2024-03-08T10:58:42;7.90;99.90
18934;DHT22;9599;53.706;10.384;2024-03-08T11:01:12;8.10;99.90
18934;DHT22;9599;53.706;10.384;2024-03-08T11:03:48;8.30;99.90
18934;DHT22;9599;53.706;10.384;2024-03-08T11:06:24;8.50;99.90
18934;DHT22;9599;53.706;10.384;2024-03-08T11:08:57;8.40;99.90
18934;DHT22;9599;53.706;10.384;2024-03-08T11:11:27;8.30;99.90
18934;DHT22;9599;53.706;10.384;2024-03-08T11:14:01;8.40;99.90
18934;DHT22;9599;53.706;10.384;2024-03-08T11:16:40;8.50;99.90
18934;DHT22;9599;53.706;10.384;2024-03-08T11:19:25;8.30;99.90
18934;DHT22;9599;53.706;10.384;2024-03-08T11:22:02;8.40;99.90
18934;DHT22;9599;53.706;10.384;2024-03-08T11:24:38;8.50;99.90
18934;DHT22;9599;53.706;10.384;2024-03-08T11:27:09;8.50;99.90
18934;DHT22;9599;53.706;10.384;2024-03-08T11:29:39;8.60;99.90
18934;DHT22;9599;53.706;10.384;2024-03-08T11:32:08;8.60;99.90
18934;DHT22;9599;53.706;10.384;2024-03-08T11:34:39;8.40;99.90
18934;DHT22;9599;53.706;10.384;2024-03-08T11:37:12;8.50;99.90
18934;DHT22;9599;53.706;10.384;2024-03-08T11:39:47;8.40;99.90
18934;DHT22;9599;53.706;10.384;2024-03-08T11:42:19;8.50;99.90
18934;DHT22;9599;53.706;10.384;2024-03-08T11:44:47;8.30;99.90
18934;DHT22;9599;53.706;10.384;2024-03-08T11:47:16;8.30;99.90
18934;DHT22;9599;53.706;10.384;2024-03-08T11:49:44;8.40;99.90
18934;DHT22;9599;53.706;10.384;2024-03-08T11:52:15;8.40;99.90
18934;DHT22;9599;53.706;10.384;2024-03-08T11:54:51;8.30;99.90
18934;DHT22;9599;53.706;10.384;2024-03-08T11:57:22;8.30;99.90
18934;DHT22;9599;53.706;10.384;2024-03-08T11:59:50;8.20;99.90
18934;DHT22;9599;53.706;10.384;2024-03-08T12:02:23;8.30;99.90
18934;DHT22;9599;53.706;10.384;2024-03-08T12:04:56;8.50;99.90
18934;DHT22;9599;53.706;10.384;2024-03-08T12:07:24;8.70;99.90
18934;DHT22;9599;53.706;10.384;2024-03-08T12:10:14;8.80;99.90
18934;DHT22;9599;53.706;10.384;2024-03-08T12:12:45;9.00;99.90
18934;DHT22;9599;53.706;10.384;2024-03-08T12:15:15;8.90;99.90
18934;DHT22;9599;53.706;10.384;2024-03-08T12:17:45;8.80;99.90
18934;DHT22;9599;53.706;10.384;2024-03-08T12:20:18;8.70;99.90
18934;DHT22;9599;53.706;10.384;2024-03-08T12:22:49;8.80;99.90
18934;DHT22;9599;53.706;10.384;2024-03-08T12:25:19;8.90;99.90
18934;DHT22;9599;53.706;10.384;2024-03-08T12:27:49;8.90;99.90
18934;DHT22;9599;53.706;10.384;2024-03-08T12:30:20;9.00;99.90
18934;DHT22;9599;53.706;10.384;2024-03-08T12:32:52;8.70;99.90
18934;DHT22;9599;53.706;10.384;2024-03-08T12:35:21;8.70;99.90
18934;DHT22;9599;53.706;10.384;2024-03-08T12:37:51;8.70;99.90
18934;DHT22;9599;53.706;10.384;2024-03-08T12:40:26;8.70;99.90
18934;DHT22;9599;53.706;10.384;2024-03-08T12:42:56;8.70;99.90
18934;DHT22;9599;53.706;10.384;2024-03-08T12:45:25;8.80;99.90
18934;DHT22;9599;53.706;10.384;2024-03-08T12:47:54;8.80;99.90
18934;DHT22;9599;53.706;10.384;2024-03-08T12:50:24;8.80;99.90
18934;DHT22;9599;53.706;10.384;2024-03-08T12:52:52;8.70;99.90
18934;DHT22;9599;53.706;10.384;2024-03-08T12:55:21;8.80;99.90
18934;DHT22;9599;53.706;10.384;2024-03-08T12:57:49;8.80;99.90
18934;DHT22;9599;53.706;10.384;2024-03-08T13:00:21;8.80;99.90
18934;DHT22;9599;53.706;10.384;2024-03-08T13:02:50;8.90;99.90
18934;DHT22;9599;53.706;10.384;2024-03-08T13:05:18;9.00;99.90
18934;DHT22;9599;53.706;10.384;2024-03-08T13:07:47;9.10;99.90
18934;DHT22;9599;53.706;10.384;2024-03-08T13:10:16;9.20;99.90
18934;DHT22;9599;53.706;10.384;2024-03-08T13:12:47;9.00;99.90
18934;DHT22;9599;53.706;10.384;2024-03-08T13:15:18;8.90;99.90
18934;DHT22;9599;53.706;10.384;2024-03-08T13:17:50;9.00;99.90
18934;DHT22;9599;53.706;10.384;2024-03-08T13:20:18;9.00;99.90
18934;DHT22;9599;53.706;10.384;2024-03-08T13:22:56;9.00;99.90
18934;DHT22;9599;53.706;10.384;2024-03-08T13:25:28;9.10;99.90
18934;DHT22;9599;53.706;10.384;2024-03-08T13:27:56;9.10;99.90
18934;DHT22;9599;53.706;10.384;2024-03-08T13:30:26;9.20;99.90
18934;DHT22;9599;53.706;10.384;2024-03-08T13:32:55;9.20;99.90
18934;DHT22;9599;53.706;10.384;2024-03-08T13:35:24;9.30;99.90
18934;DHT22;9599;53.706;10.384;2024-03-08T13:37:53;9.30;99.90
18934;DHT22;9599;53.706;10.384;2024-03-08T13:40:22;9.20;99.90
18934;DHT22;9599;53.706;10.384;2024-03-08T13:42:51;9.20;99.90
18934;DHT22;9599;53.706;10.384;2024-03-08T13:45:19;9.10;99.90
18934;DHT22;9599;53.706;10.384;2024-03-08T13:47:51;9.10;99.90
18934;DHT22;9599;53.706;10.384;2024-03-08T13:50:20;9.00;99.90
18934;DHT22;9599;53.706;10.384;2024-03-08T13:52:51;9.00;99.90
18934;DHT22;9599;53.706;10.384;2024-03-08T13:55:22;9.00;99.90
18934;DHT22;9599;53.706;10.384;2024-03-08T13:57:52;9.10;99.90
18934;DHT22;9599;53.706;10.384;2024-03-08T14:00:20;9.10;99.90
18934;DHT22;9599;53.706;10.384;2024-03-08T14:02:50;9.00;99.90
18934;DHT22;9599;53.706;10.384;2024-03-08T14:05:19;9.10;99.90
18934;DHT22;9599;53.706;10.384;2024-03-08T14:07:47;9.20;99.90
18934;DHT22;9599;53.706;10.384;2024-03-08T14:10:16;9.10;99.90
18934;DHT22;9599;53.706;10.384;2024-03-08T14:12:47;9.10;99.90
18934;DHT22;9599;53.706;10.384;2024-03-08T14:15:17;9.10;99.90
18934;DHT22;9599;53.706;10.384;2024-03-08T14:17:52;9.20;99.90
18934;DHT22;9599;53.706;10.384;2024-03-08T14:20:22;9.10;99.90
18934;DHT22;9599;53.706;10.384;2024-03-08T14:22:52;9.10;99.90
18934;DHT22;9599;53.706;10.384;2024-03-08T14:25:23;9.10;99.90
18934;DHT22;9599;53.706;10.384;2024-03-08T14:27:53;9.10;99.90
18934;DHT22;9599;53.706;10.384;2024-03-08T14:30:25;9.10;99.90
18934;DHT22;9599;53.706;10.384;2024-03-08T14:33:05;9.10;99.90
18934;DHT22;9599;53.706;10.384;2024-03-08T14:35:38;9.00;99.90
18934;DHT22;9599;53.706;10.384;2024-03-08T14:38:07;9.00;99.90
18934;DHT22;9599;53.706;10.384;2024-03-08T14:40:36;8.90;99.90
18934;DHT22;9599;53.706;10.384;2024-03-08T14:43:05;8.90;99.90
18934;DHT22;9599;53.706;10.384;2024-03-08T14:45:33;9.00;99.90
18934;DHT22;9599;53.706;10.384;2024-03-08T14:48:01;9.00;99.90
18934;DHT22;9599;53.706;10.384;2024-03-08T14:50:31;8.90;99.90
18934;DHT22;9599;53.706;10.384;2024-03-08T14:53:01;8.90;99.90
18934;DHT22;9599;53.706;10.384;2024-03-08T14:55:33;8.80;99.90
18934;DHT22;9599;53.706;10.384;2024-03-08T14:58:01;8.80;99.90
18934;DHT22;9599;53.706;10.384;2024-03-08T15:00:31;8.70;99.90
18934;DHT22;9599;53.706;10.384;2024-03-08T15:03:02;8.80;99.90
18934;DHT22;9599;53.706;10.384;2024-03-08T15:05:31;8.80;99.90
18934;DHT22;9599;53.706;10.384;2024-03-08T15:08:05;8.80;99.90
18934;DHT22;9599;53.706;10.384;2024-03-08T15:10:37;8.80;99.90
18934;DHT22;9599;53.706;10.384;2024-03-08T15:13:09;8.70;99.90
18934;DHT22;9599;53.706;10.384;2024-03-08T15:15:48;8.60;99.90
18934;DHT22;9599;53.706;10.384;2024-03-08T15:18:22;8.60;99.90
18934;DHT22;9599;53.706;10.384;2024-03-08T15:20:52;8.60;99.90
18934;DHT22;9599;53.706;10.384;2024-03-08T15:23:23;8.60;99.90
18934;DHT22;9599;53.706;10.384;2024-03-08T15:25:51;8.60;99.90
18934;DHT22;9599;53.706;10.384;2024-03-08T15:28:19;8.60;99.90
18934;DHT22;9599;53.706;10.384;2024-03-08T15:30:53;8.50;99.90
18934;DHT22;9599;53.706;10.384;2024-03-08T15:33:22;8.50;99.90
18934;DHT22;9599;53.706;10.384;2024-03-08T15:35:54;8.50;99.90
18934;DHT22;9599;53.706;10.384;2024-03-08T15:38:28;8.50;99.90
18934;DHT22;9599;53.706;10.384;2024-03-08T15:40:56;8.50;99.90
18934;DHT22;9599;53.706;10.384;2024-03-08T15:43:25;8.50;99.90
18934;DHT22;9599;53.706;10.384;2024-03-08T15:45:53;8.40;99.90
18934;DHT22;9599;53.706;10.384;2024-03-08T15:48:22;8.40;99.90
18934;DHT22;9599;53.706;10.384;2024-03-08T15:50:50;8.40;99.90
18934;DHT22;9599;53.706;10.384;2024-03-08T15:53:18;8.30;99.90
18934;DHT22;9599;53.706;10.384;2024-03-08T15:55:48;8.30;99.90
18934;DHT22;9599;53.706;10.384;2024-03-08T15:58:16;8.20;99.90
18934;DHT22;9599;53.706;10.384;2024-03-08T16:00:44;8.20;99.90
18934;DHT22;9599;53.706;10.384;2024-03-08T16:03:15;8.10;99.90
18934;DHT22;9599;53.706;10.384;2024-03-08T16:05:43;8.00;99.90
18934;DHT22;9599;53.706;10.384;2024-03-08T16:08:12;8.00;99.90
18934;DHT22;9599;53.706;10.384;2024-03-08T16:10:44;8.00;99.90
18934;DHT22;9599;53.706;10.384;2024-03-08T16:13:18;7.90;99.90
18934;DHT22;9599;53.706;10.384;2024-03-08T16:15:47;7.90;99.90